AAY1530 KOAK-KLAX
Flight info
| Callsign | AAY1530 |
|---|---|
| Flight time | 1h 0m |
| Altitude | 37000 |
| Route | CNDEL5 SUSEY EBAYE BURGL IRNMN2 |
| Aircraft | A320/M-SDE3FGHIRWY/LB1 |
Departure
| Time | 2026-05-04 23:25 |
|---|---|
| Airport | San Francisco Bay Oakland International Airport (KOAK) |
Arrival
| Time | 2026-05-05 00:25 |
|---|---|
| Airport | Los Angeles International Airport (KLAX) |
| Time | Latitude | Longitude | Altitude | Speed | Heading |
|---|---|---|---|---|---|
| 2026-05-04 23:03 | 37.70932 | -122.21349 | 13 ft | 0 kts | 147° |
| 2026-05-04 23:17 | 37.70952 | -122.21365 | 15 ft | 4 kts | 150° |
| 2026-05-04 23:17 | 37.70976 | -122.21381 | 15 ft | 4 kts | 154° |
| 2026-05-04 23:17 | 37.71000 | -122.21394 | 15 ft | 4 kts | 162° |
| 2026-05-04 23:18 | 37.71026 | -122.21401 | 16 ft | 3 kts | 182° |
| 2026-05-04 23:18 | 37.71031 | -122.21401 | 15 ft | 0 kts | 185° |
| 2026-05-04 23:20 | 37.71008 | -122.21404 | 16 ft | 7 kts | 185° |
| 2026-05-04 23:20 | 37.70940 | -122.21441 | 13 ft | 14 kts | 221° |
| 2026-05-04 23:20 | 37.70862 | -122.21537 | 13 ft | 15 kts | 249° |
| 2026-05-04 23:21 | 37.70818 | -122.21632 | 13 ft | 13 kts | 240° |
| 2026-05-04 23:21 | 37.70757 | -122.21722 | 14 ft | 15 kts | 220° |
| 2026-05-04 23:21 | 37.70673 | -122.21793 | 12 ft | 14 kts | 183° |
| 2026-05-04 23:21 | 37.70594 | -122.21724 | 11 ft | 14 kts | 129° |
| 2026-05-04 23:22 | 37.70536 | -122.21631 | 11 ft | 13 kts | 130° |
| 2026-05-04 23:22 | 37.70479 | -122.21547 | 10 ft | 13 kts | 130° |
| 2026-05-04 23:22 | 37.70422 | -122.21460 | 7 ft | 12 kts | 129° |
| 2026-05-04 23:22 | 37.70360 | -122.21401 | 8 ft | 10 kts | 158° |
| 2026-05-04 23:23 | 37.70299 | -122.21372 | 10 ft | 8 kts | 160° |
| 2026-05-04 23:23 | 37.70247 | -122.21358 | 9 ft | 7 kts | 182° |
| 2026-05-04 23:23 | 37.70204 | -122.21386 | 8 ft | 8 kts | 221° |
| 2026-05-04 23:23 | 37.70166 | -122.21438 | 7 ft | 7 kts | 252° |
| 2026-05-04 23:24 | 37.70196 | -122.21500 | 7 ft | 10 kts | 308° |
| 2026-05-04 23:24 | 37.70289 | -122.21642 | 5 ft | 50 kts | 309° |
| 2026-05-04 23:24 | 37.70673 | -122.22215 | 6 ft | 118 kts | 310° |
| 2026-05-04 23:24 | 37.71321 | -122.23180 | 121 ft | 159 kts | 304° |
| 2026-05-04 23:25 | 37.72035 | -122.24239 | 856 ft | 159 kts | 307° |
| 2026-05-04 23:25 | 37.72750 | -122.25302 | 1664 ft | 158 kts | 307° |
| 2026-05-04 23:25 | 37.73445 | -122.26378 | 2395 ft | 159 kts | 305° |
| 2026-05-04 23:25 | 37.74133 | -122.27490 | 3012 ft | 162 kts | 305° |
| 2026-05-04 23:26 | 37.74736 | -122.28702 | 3633 ft | 165 kts | 288° |
| 2026-05-04 23:26 | 37.74842 | -122.30126 | 4254 ft | 165 kts | 253° |
| 2026-05-04 23:26 | 37.74207 | -122.31332 | 4719 ft | 175 kts | 213° |
| 2026-05-04 23:26 | 37.73002 | -122.31835 | 5046 ft | 197 kts | 186° |
| 2026-05-04 23:27 | 37.71560 | -122.31996 | 5437 ft | 219 kts | 182° |
| 2026-05-04 23:27 | 37.69956 | -122.32138 | 5889 ft | 242 kts | 183° |
| 2026-05-04 23:27 | 37.68201 | -122.32286 | 6382 ft | 264 kts | 182° |
| 2026-05-04 23:27 | 37.66292 | -122.32396 | 6882 ft | 285 kts | 181° |
| 2026-05-04 23:28 | 37.64244 | -122.32465 | 7436 ft | 302 kts | 180° |
| 2026-05-04 23:28 | 37.62108 | -122.32458 | 8195 ft | 305 kts | 174° |
| 2026-05-04 23:28 | 37.60122 | -122.31786 | 9611 ft | 292 kts | 154° |
| 2026-05-04 23:28 | 37.58445 | -122.30340 | 10442 ft | 300 kts | 139° |
| 2026-05-04 23:29 | 37.56803 | -122.28558 | 10777 ft | 323 kts | 138° |
| 2026-05-04 23:29 | 37.55083 | -122.26639 | 11367 ft | 335 kts | 137° |
| 2026-05-04 23:29 | 37.53324 | -122.24668 | 12139 ft | 341 kts | 137° |
| 2026-05-04 23:29 | 37.51536 | -122.22675 | 12977 ft | 346 kts | 136° |
| 2026-05-04 23:30 | 37.49713 | -122.20662 | 13789 ft | 351 kts | 136° |
| 2026-05-04 23:30 | 37.47864 | -122.18634 | 14505 ft | 355 kts | 136° |
| 2026-05-04 23:30 | 37.46015 | -122.16615 | 15247 ft | 357 kts | 137° |
| 2026-05-04 23:30 | 37.44127 | -122.14560 | 15987 ft | 359 kts | 137° |
| 2026-05-04 23:31 | 37.42232 | -122.12493 | 16719 ft | 362 kts | 137° |
| 2026-05-04 23:31 | 37.40325 | -122.10411 | 17427 ft | 364 kts | 137° |
| 2026-05-04 23:31 | 37.38401 | -122.08315 | 18151 ft | 367 kts | 137° |
| 2026-05-04 23:31 | 37.36464 | -122.06207 | 18776 ft | 370 kts | 136° |
| 2026-05-04 23:32 | 37.34512 | -122.04087 | 19375 ft | 373 kts | 136° |
| 2026-05-04 23:32 | 37.32544 | -122.01948 | 19956 ft | 376 kts | 136° |
| 2026-05-04 23:32 | 37.30554 | -121.99783 | 20537 ft | 380 kts | 135° |
| 2026-05-04 23:32 | 37.28548 | -121.97597 | 21105 ft | 383 kts | 135° |
| 2026-05-04 23:33 | 37.26527 | -121.95397 | 21659 ft | 386 kts | 135° |
| 2026-05-04 23:33 | 37.24484 | -121.93175 | 22230 ft | 389 kts | 135° |
| 2026-05-04 23:33 | 37.22431 | -121.90950 | 22784 ft | 392 kts | 135° |
| 2026-05-04 23:33 | 37.20357 | -121.88704 | 23336 ft | 395 kts | 134° |
| 2026-05-04 23:34 | 37.18264 | -121.86442 | 23852 ft | 398 kts | 134° |
| 2026-05-04 23:34 | 37.16154 | -121.84162 | 24281 ft | 401 kts | 135° |
| 2026-05-04 23:34 | 37.14033 | -121.81873 | 24725 ft | 404 kts | 135° |
| 2026-05-04 23:34 | 37.11895 | -121.79563 | 25163 ft | 407 kts | 135° |
| 2026-05-04 23:35 | 37.09747 | -121.77243 | 25624 ft | 408 kts | 135° |
| 2026-05-04 23:35 | 37.07593 | -121.74917 | 26069 ft | 411 kts | 135° |
| 2026-05-04 23:35 | 37.05446 | -121.72602 | 26492 ft | 413 kts | 135° |
| 2026-05-04 23:35 | 37.03260 | -121.70248 | 26896 ft | 416 kts | 135° |
| 2026-05-04 23:36 | 37.01058 | -121.67874 | 27283 ft | 419 kts | 136° |
| 2026-05-04 23:36 | 36.98837 | -121.65483 | 27658 ft | 423 kts | 136° |
| 2026-05-04 23:36 | 36.96597 | -121.63079 | 28042 ft | 426 kts | 136° |
| 2026-05-04 23:36 | 36.94342 | -121.60664 | 28428 ft | 429 kts | 136° |
| 2026-05-04 23:37 | 36.92071 | -121.58232 | 28790 ft | 432 kts | 136° |
| 2026-05-04 23:37 | 36.89781 | -121.55778 | 29145 ft | 435 kts | 137° |
| 2026-05-04 23:37 | 36.87479 | -121.53308 | 29511 ft | 437 kts | 137° |
| 2026-05-04 23:37 | 36.85156 | -121.50820 | 29824 ft | 441 kts | 138° |
| 2026-05-04 23:38 | 36.82814 | -121.48316 | 30125 ft | 445 kts | 138° |
| 2026-05-04 23:38 | 36.80452 | -121.45800 | 30387 ft | 448 kts | 138° |
| 2026-05-04 23:38 | 36.78077 | -121.43270 | 30664 ft | 451 kts | 139° |
| 2026-05-04 23:38 | 36.75689 | -121.40723 | 30920 ft | 453 kts | 139° |
| 2026-05-04 23:39 | 36.73282 | -121.38159 | 31183 ft | 456 kts | 139° |
| 2026-05-04 23:39 | 36.70867 | -121.35589 | 31445 ft | 458 kts | 140° |
| 2026-05-04 23:39 | 36.68429 | -121.33000 | 31694 ft | 461 kts | 141° |
| 2026-05-04 23:39 | 36.65987 | -121.30409 | 32045 ft | 461 kts | 141° |
| 2026-05-04 23:40 | 36.63543 | -121.27814 | 32395 ft | 461 kts | 142° |
| 2026-05-04 23:40 | 36.61100 | -121.25219 | 32741 ft | 461 kts | 141° |
| 2026-05-04 23:40 | 36.58692 | -121.22660 | 33091 ft | 461 kts | 142° |
| 2026-05-04 23:40 | 36.56221 | -121.20037 | 33477 ft | 461 kts | 142° |
| 2026-05-04 23:41 | 36.53811 | -121.17488 | 33837 ft | 460 kts | 143° |
| 2026-05-04 23:41 | 36.51379 | -121.14918 | 34183 ft | 460 kts | 143° |
| 2026-05-04 23:41 | 36.48939 | -121.12344 | 34501 ft | 459 kts | 143° |
| 2026-05-04 23:41 | 36.46496 | -121.09769 | 34824 ft | 459 kts | 143° |
| 2026-05-04 23:42 | 36.44073 | -121.07200 | 35131 ft | 459 kts | 142° |
| 2026-05-04 23:42 | 36.41850 | -121.04337 | 35418 ft | 463 kts | 134° |
| 2026-05-04 23:42 | 36.39751 | -121.01307 | 35712 ft | 462 kts | 134° |
| 2026-05-04 23:42 | 36.37654 | -120.98285 | 35994 ft | 462 kts | 135° |
| 2026-05-04 23:43 | 36.35558 | -120.95267 | 36264 ft | 461 kts | 135° |
| 2026-05-04 23:43 | 36.33457 | -120.92254 | 36556 ft | 461 kts | 135° |
| 2026-05-04 23:43 | 36.31357 | -120.89249 | 36846 ft | 460 kts | 135° |
| 2026-05-04 23:43 | 36.29260 | -120.86251 | 37005 ft | 460 kts | 135° |
| 2026-05-04 23:44 | 36.25092 | -120.80283 | 37035 ft | 457 kts | 135° |
| 2026-05-04 23:44 | 36.20954 | -120.74373 | 37031 ft | 456 kts | 136° |
| 2026-05-04 23:45 | 36.16798 | -120.68444 | 37034 ft | 456 kts | 136° |
| 2026-05-04 23:45 | 36.12637 | -120.62515 | 37034 ft | 455 kts | 136° |
| 2026-05-04 23:46 | 36.08483 | -120.56616 | 37026 ft | 455 kts | 137° |
| 2026-05-04 23:46 | 36.04324 | -120.50709 | 37041 ft | 455 kts | 137° |
| 2026-05-04 23:47 | 36.00168 | -120.44812 | 37045 ft | 455 kts | 137° |
| 2026-05-04 23:47 | 35.95997 | -120.38919 | 37019 ft | 456 kts | 138° |
| 2026-05-04 23:48 | 35.91818 | -120.33029 | 37033 ft | 455 kts | 139° |
| 2026-05-04 23:48 | 35.87602 | -120.27229 | 37035 ft | 449 kts | 144° |
| 2026-05-04 23:49 | 35.82635 | -120.22840 | 37042 ft | 436 kts | 156° |
| 2026-05-04 23:49 | 35.77489 | -120.18980 | 37044 ft | 436 kts | 156° |
| 2026-05-04 23:50 | 35.72318 | -120.15077 | 37037 ft | 436 kts | 156° |
| 2026-05-04 23:50 | 35.67149 | -120.11184 | 37028 ft | 435 kts | 156° |
| 2026-05-04 23:51 | 35.61985 | -120.07294 | 37048 ft | 434 kts | 156° |
| 2026-05-04 23:51 | 35.56843 | -120.03410 | 37035 ft | 433 kts | 157° |
| 2026-05-04 23:52 | 35.51709 | -119.99543 | 37048 ft | 432 kts | 157° |
| 2026-05-04 23:52 | 35.46581 | -119.95694 | 37053 ft | 431 kts | 157° |
| 2026-05-04 23:53 | 35.41466 | -119.91856 | 37043 ft | 430 kts | 157° |
| 2026-05-04 23:53 | 35.36389 | -119.88051 | 37035 ft | 430 kts | 157° |
| 2026-05-04 23:54 | 35.31289 | -119.84223 | 37035 ft | 430 kts | 157° |
| 2026-05-04 23:54 | 35.26334 | -119.80026 | 37011 ft | 436 kts | 151° |
| 2026-05-04 23:55 | 35.21524 | -119.75516 | 36988 ft | 436 kts | 152° |
| 2026-05-04 23:55 | 35.17491 | -119.71764 | 35949 ft | 445 kts | 152° |
| 2026-05-04 23:56 | 35.14994 | -119.69460 | 34930 ft | 453 kts | 153° |
| 2026-05-04 23:56 | 35.12497 | -119.67141 | 34507 ft | 447 kts | 153° |
| 2026-05-04 23:56 | 35.10048 | -119.64846 | 33438 ft | 443 kts | 153° |
| 2026-05-04 23:56 | 35.07613 | -119.62566 | 32750 ft | 436 kts | 153° |
| 2026-05-04 23:57 | 35.05231 | -119.60332 | 32284 ft | 429 kts | 153° |
| 2026-05-04 23:57 | 35.02875 | -119.58136 | 31698 ft | 425 kts | 154° |
| 2026-05-04 23:57 | 35.00535 | -119.55959 | 31154 ft | 421 kts | 154° |
| 2026-05-04 23:57 | 34.98221 | -119.53813 | 30592 ft | 417 kts | 154° |
| 2026-05-04 23:58 | 34.95909 | -119.51678 | 30058 ft | 415 kts | 154° |
| 2026-05-04 23:58 | 34.93619 | -119.49562 | 29467 ft | 411 kts | 154° |
| 2026-05-04 23:58 | 34.91357 | -119.47467 | 28951 ft | 406 kts | 154° |
| 2026-05-04 23:58 | 34.89107 | -119.45405 | 28528 ft | 402 kts | 154° |
| 2026-05-04 23:59 | 34.86865 | -119.43390 | 28116 ft | 400 kts | 154° |
| 2026-05-04 23:59 | 34.84619 | -119.41397 | 27681 ft | 397 kts | 155° |
| 2026-05-04 23:59 | 34.82396 | -119.39430 | 27266 ft | 395 kts | 154° |
| 2026-05-04 23:59 | 34.80175 | -119.37461 | 26845 ft | 394 kts | 154° |
| 2026-05-05 00:00 | 34.77970 | -119.35501 | 26427 ft | 392 kts | 154° |
| 2026-05-05 00:00 | 34.76513 | -119.34203 | 26153 ft | 391 kts | 154° |
| 2026-05-05 00:00 | 34.73581 | -119.31597 | 25604 ft | 388 kts | 153° |
| 2026-05-05 00:00 | 34.71401 | -119.29681 | 25201 ft | 387 kts | 153° |
| 2026-05-05 00:01 | 34.69222 | -119.27778 | 24795 ft | 385 kts | 153° |
| 2026-05-05 00:01 | 34.67050 | -119.25886 | 24387 ft | 384 kts | 153° |
| 2026-05-05 00:01 | 34.64881 | -119.23999 | 23971 ft | 382 kts | 153° |
| 2026-05-05 00:01 | 34.62722 | -119.22126 | 23469 ft | 381 kts | 153° |
| 2026-05-05 00:02 | 34.60564 | -119.20267 | 22947 ft | 378 kts | 153° |
| 2026-05-05 00:02 | 34.58419 | -119.18425 | 22469 ft | 376 kts | 152° |
| 2026-05-05 00:02 | 34.56292 | -119.16602 | 21996 ft | 373 kts | 152° |
| 2026-05-05 00:02 | 34.54192 | -119.14778 | 21526 ft | 370 kts | 151° |
| 2026-05-05 00:03 | 34.52118 | -119.12942 | 21050 ft | 368 kts | 150° |
| 2026-05-05 00:03 | 34.50058 | -119.11103 | 20578 ft | 366 kts | 150° |
| 2026-05-05 00:03 | 34.48015 | -119.09283 | 20132 ft | 364 kts | 150° |
| 2026-05-05 00:03 | 34.45979 | -119.07471 | 19721 ft | 361 kts | 149° |
| 2026-05-05 00:04 | 34.43959 | -119.05679 | 19352 ft | 358 kts | 149° |
| 2026-05-05 00:04 | 34.41970 | -119.03933 | 18887 ft | 357 kts | 149° |
| 2026-05-05 00:04 | 34.39968 | -119.02198 | 18563 ft | 352 kts | 149° |
| 2026-05-05 00:04 | 34.37976 | -119.00486 | 18108 ft | 350 kts | 149° |
| 2026-05-05 00:05 | 34.36004 | -118.98795 | 17481 ft | 344 kts | 149° |
| 2026-05-05 00:05 | 34.34068 | -118.97129 | 16938 ft | 341 kts | 148° |
| 2026-05-05 00:05 | 34.32148 | -118.95433 | 16433 ft | 342 kts | 148° |
| 2026-05-05 00:05 | 34.30246 | -118.93708 | 15934 ft | 342 kts | 147° |
| 2026-05-05 00:06 | 34.28354 | -118.91975 | 15511 ft | 340 kts | 147° |
| 2026-05-05 00:06 | 34.26474 | -118.90250 | 15132 ft | 337 kts | 147° |
| 2026-05-05 00:06 | 34.24610 | -118.88541 | 14703 ft | 333 kts | 147° |
| 2026-05-05 00:06 | 34.22782 | -118.86855 | 14020 ft | 330 kts | 146° |
| 2026-05-05 00:07 | 34.20966 | -118.85181 | 13491 ft | 327 kts | 147° |
| 2026-05-05 00:07 | 34.19162 | -118.83522 | 13022 ft | 324 kts | 146° |
| 2026-05-05 00:07 | 34.17399 | -118.81900 | 12851 ft | 315 kts | 147° |
| 2026-05-05 00:07 | 34.15693 | -118.80280 | 12592 ft | 310 kts | 144° |
| 2026-05-05 00:08 | 34.14071 | -118.78585 | 12330 ft | 306 kts | 142° |
| 2026-05-05 00:08 | 34.12505 | -118.76863 | 12092 ft | 303 kts | 141° |
| 2026-05-05 00:08 | 34.10958 | -118.75134 | 11869 ft | 302 kts | 141° |
| 2026-05-05 00:08 | 34.09424 | -118.73421 | 11579 ft | 300 kts | 141° |
| 2026-05-05 00:09 | 34.07886 | -118.71723 | 11272 ft | 298 kts | 141° |
| 2026-05-05 00:09 | 34.06371 | -118.70065 | 11038 ft | 293 kts | 141° |
| 2026-05-05 00:09 | 34.04882 | -118.68433 | 10849 ft | 287 kts | 139° |
| 2026-05-05 00:09 | 34.03646 | -118.66556 | 10503 ft | 291 kts | 123° |
| 2026-05-05 00:10 | 34.02853 | -118.64304 | 10138 ft | 295 kts | 106° |
| 2026-05-05 00:10 | 34.02544 | -118.61873 | 9804 ft | 294 kts | 97° |
| 2026-05-05 00:10 | 34.02322 | -118.59438 | 9490 ft | 292 kts | 98° |
| 2026-05-05 00:10 | 34.02092 | -118.56973 | 9185 ft | 290 kts | 98° |
| 2026-05-05 00:11 | 34.01865 | -118.54590 | 8845 ft | 290 kts | 98° |
| 2026-05-05 00:11 | 34.01629 | -118.52146 | 8282 ft | 296 kts | 98° |
| 2026-05-05 00:11 | 34.01389 | -118.49661 | 7796 ft | 297 kts | 97° |
| 2026-05-05 00:11 | 34.01160 | -118.47224 | 7609 ft | 287 kts | 97° |
| 2026-05-05 00:12 | 34.01174 | -118.44872 | 7449 ft | 278 kts | 81° |
| 2026-05-05 00:12 | 34.01555 | -118.42580 | 7056 ft | 278 kts | 78° |
| 2026-05-05 00:12 | 34.01948 | -118.40305 | 6704 ft | 277 kts | 77° |
| 2026-05-05 00:12 | 34.02341 | -118.38037 | 6347 ft | 275 kts | 77° |
| 2026-05-05 00:13 | 34.02727 | -118.35789 | 6039 ft | 272 kts | 80° |
| 2026-05-05 00:13 | 34.03019 | -118.33589 | 6001 ft | 260 kts | 83° |
| 2026-05-05 00:13 | 34.03240 | -118.31482 | 6003 ft | 247 kts | 84° |
| 2026-05-05 00:13 | 34.03438 | -118.29473 | 5999 ft | 236 kts | 84° |
| 2026-05-05 00:14 | 34.03635 | -118.27512 | 6001 ft | 236 kts | 84° |
| 2026-05-05 00:14 | 34.03836 | -118.25540 | 6002 ft | 237 kts | 84° |
| 2026-05-05 00:14 | 34.04044 | -118.23570 | 5761 ft | 241 kts | 83° |
| 2026-05-05 00:14 | 34.04259 | -118.21591 | 5321 ft | 236 kts | 83° |
| 2026-05-05 00:15 | 34.04474 | -118.19642 | 5105 ft | 235 kts | 82° |
| 2026-05-05 00:15 | 34.04690 | -118.17692 | 4958 ft | 234 kts | 82° |
| 2026-05-05 00:15 | 34.04903 | -118.15758 | 4839 ft | 232 kts | 83° |
| 2026-05-05 00:15 | 34.05117 | -118.13819 | 4760 ft | 233 kts | 83° |
| 2026-05-05 00:16 | 34.05330 | -118.11871 | 4693 ft | 234 kts | 83° |
| 2026-05-05 00:16 | 34.05544 | -118.09925 | 4652 ft | 232 kts | 83° |
| 2026-05-05 00:16 | 34.05754 | -118.07989 | 4597 ft | 234 kts | 84° |
| 2026-05-05 00:16 | 34.05753 | -118.06037 | 4545 ft | 232 kts | 108° |
| 2026-05-05 00:17 | 34.04972 | -118.04409 | 4495 ft | 222 kts | 143° |
| 2026-05-05 00:17 | 34.03648 | -118.03569 | 4438 ft | 214 kts | 171° |
| 2026-05-05 00:17 | 34.02196 | -118.03404 | 4406 ft | 207 kts | 192° |
| 2026-05-05 00:17 | 34.00829 | -118.03855 | 4404 ft | 202 kts | 211° |
| 2026-05-05 00:18 | 33.99695 | -118.04816 | 4214 ft | 199 kts | 227° |
| 2026-05-05 00:18 | 33.98887 | -118.06148 | 3952 ft | 196 kts | 245° |
| 2026-05-05 00:18 | 33.98482 | -118.07704 | 3667 ft | 195 kts | 262° |
| 2026-05-05 00:18 | 33.98320 | -118.09318 | 3390 ft | 195 kts | 262° |
| 2026-05-05 00:19 | 33.98159 | -118.10948 | 3069 ft | 195 kts | 262° |
| 2026-05-05 00:19 | 33.98000 | -118.12543 | 2782 ft | 195 kts | 262° |
| 2026-05-05 00:19 | 33.97837 | -118.14174 | 2570 ft | 191 kts | 262° |
| 2026-05-05 00:19 | 33.97682 | -118.15730 | 2393 ft | 190 kts | 262° |
| 2026-05-05 00:20 | 33.97522 | -118.17327 | 2189 ft | 185 kts | 261° |
| 2026-05-05 00:20 | 33.97377 | -118.18778 | 2106 ft | 169 kts | 262° |
| 2026-05-05 00:20 | 33.97242 | -118.20123 | 2029 ft | 156 kts | 261° |
| 2026-05-05 00:20 | 33.97117 | -118.21375 | 2008 ft | 143 kts | 261° |
| 2026-05-05 00:21 | 33.97001 | -118.22520 | 1996 ft | 134 kts | 262° |
| 2026-05-05 00:21 | 33.96891 | -118.23614 | 2001 ft | 129 kts | 259° |
| 2026-05-05 00:21 | 33.96782 | -118.24691 | 2006 ft | 131 kts | 260° |
| 2026-05-05 00:21 | 33.96673 | -118.25773 | 2007 ft | 130 kts | 261° |
| 2026-05-05 00:22 | 33.96565 | -118.26838 | 2035 ft | 128 kts | 261° |
| 2026-05-05 00:22 | 33.96459 | -118.27896 | 2025 ft | 126 kts | 262° |
| 2026-05-05 00:22 | 33.96351 | -118.28956 | 1938 ft | 127 kts | 262° |
| 2026-05-05 00:22 | 33.96245 | -118.30008 | 1814 ft | 126 kts | 262° |
| 2026-05-05 00:23 | 33.96139 | -118.31053 | 1665 ft | 125 kts | 261° |
| 2026-05-05 00:23 | 33.96033 | -118.32099 | 1497 ft | 126 kts | 262° |
| 2026-05-05 00:23 | 33.95930 | -118.33138 | 1362 ft | 125 kts | 262° |
| 2026-05-05 00:23 | 33.95823 | -118.34176 | 1208 ft | 126 kts | 260° |
| 2026-05-05 00:24 | 33.95716 | -118.35232 | 1026 ft | 125 kts | 260° |
| 2026-05-05 00:24 | 33.95614 | -118.36272 | 817 ft | 125 kts | 263° |
| 2026-05-05 00:24 | 33.95512 | -118.37313 | 633 ft | 124 kts | 262° |
| 2026-05-05 00:24 | 33.95402 | -118.38342 | 432 ft | 125 kts | 260° |
| 2026-05-05 00:25 | 33.95299 | -118.39377 | 309 ft | 124 kts | 259° |
| 2026-05-05 00:25 | 33.95192 | -118.40403 | 143 ft | 122 kts | 260° |
| 2026-05-05 00:25 | 33.95096 | -118.41294 | 126 ft | 84 kts | 263° |
| 2026-05-05 00:25 | 33.95051 | -118.41690 | 123 ft | 30 kts | 255° |
| 2026-05-05 00:26 | 33.95027 | -118.41921 | 126 ft | 26 kts | 267° |
| 2026-05-05 00:26 | 33.95013 | -118.42123 | 125 ft | 23 kts | 264° |
| 2026-05-05 00:26 | 33.94994 | -118.42306 | 126 ft | 21 kts | 263° |
| 2026-05-05 00:26 | 33.94954 | -118.42464 | 124 ft | 19 kts | 248° |
| 2026-05-05 00:27 | 33.94906 | -118.42604 | 125 ft | 18 kts | 237° |
| 2026-05-05 00:27 | 33.94821 | -118.42717 | 122 ft | 19 kts | 219° |
| 2026-05-05 00:27 | 33.94702 | -118.42778 | 123 ft | 16 kts | 185° |
| 2026-05-05 00:27 | 33.94646 | -118.42739 | 122 ft | 10 kts | 112° |
| 2026-05-05 00:28 | 33.94642 | -118.42664 | 126 ft | 9 kts | 89° |
| 2026-05-05 00:28 | 33.94647 | -118.42584 | 122 ft | 13 kts | 83° |
| 2026-05-05 00:28 | 33.94661 | -118.42444 | 123 ft | 17 kts | 82° |
| 2026-05-05 00:28 | 33.94677 | -118.42305 | 123 ft | 16 kts | 83° |
| 2026-05-05 00:29 | 33.94689 | -118.42173 | 121 ft | 15 kts | 84° |
| 2026-05-05 00:29 | 33.94702 | -118.42038 | 123 ft | 19 kts | 82° |
| 2026-05-05 00:29 | 33.94720 | -118.41854 | 126 ft | 25 kts | 83° |
| 2026-05-05 00:29 | 33.94747 | -118.41619 | 121 ft | 30 kts | 84° |
| 2026-05-05 00:30 | 33.94760 | -118.41448 | 121 ft | 11 kts | 96° |
| 2026-05-05 00:30 | 33.94715 | -118.41389 | 122 ft | 9 kts | 164° |
| 2026-05-05 00:30 | 33.94646 | -118.41379 | 124 ft | 11 kts | 174° |
| 2026-05-05 00:30 | 33.94559 | -118.41366 | 124 ft | 14 kts | 172° |
| 2026-05-05 00:31 | 33.94453 | -118.41349 | 124 ft | 17 kts | 172° |
| 2026-05-05 00:31 | 33.94327 | -118.41331 | 124 ft | 19 kts | 173° |
| 2026-05-05 00:31 | 33.94285 | -118.41355 | 122 ft | 3 kts | 257° |
| 2026-05-05 00:31 | 33.94278 | -118.41394 | 126 ft | 6 kts | 261° |
| 2026-05-05 00:32 | 33.94274 | -118.41428 | 126 ft | 2 kts | 261° |
| 2026-05-05 00:32 | 33.94274 | -118.41434 | 126 ft | 0 kts | 265° |